createdAt,value
2018-05-02T00:02:27.768Z,2.17
2018-05-02T00:04:56.036Z,1.93
2018-05-02T00:07:24.290Z,2.33
2018-05-02T00:09:52.565Z,2.60
2018-05-02T00:12:20.815Z,2.30
2018-05-02T00:14:49.095Z,2.30
2018-05-02T00:17:17.355Z,1.90
2018-05-02T00:19:46.388Z,2.80
2018-05-02T00:22:14.660Z,2.57
2018-05-02T00:24:44.507Z,2.60
2018-05-02T00:27:12.797Z,2.33
2018-05-02T00:29:41.063Z,2.40
2018-05-02T00:32:09.314Z,2.80
2018-05-02T00:34:37.579Z,2.40
2018-05-02T00:37:05.888Z,2.40
2018-05-02T00:39:34.135Z,2.00
2018-05-02T00:42:02.427Z,2.03
2018-05-02T00:44:30.680Z,2.10
2018-05-02T00:46:58.950Z,2.50
2018-05-02T00:49:27.207Z,2.20
2018-05-02T00:51:56.255Z,2.42
2018-05-02T00:54:24.506Z,2.90
2018-05-02T00:56:52.772Z,2.47
2018-05-02T00:59:21.050Z,2.70
2018-05-02T01:01:49.331Z,2.90
2018-05-02T01:04:17.612Z,2.47
2018-05-02T01:06:45.905Z,2.40
2018-05-02T01:09:14.178Z,2.47
2018-05-02T01:11:42.535Z,2.60
2018-05-02T01:14:10.819Z,2.67
2018-05-02T01:16:39.103Z,2.23
2018-05-02T01:19:07.382Z,2.57
2018-05-02T01:21:35.650Z,2.37
2018-05-02T01:24:03.923Z,2.67
2018-05-02T01:26:32.192Z,2.10
2018-05-02T01:29:00.493Z,2.63
2018-05-02T01:31:28.747Z,2.43
2018-05-02T01:33:57.020Z,2.33
2018-05-02T01:36:25.292Z,2.90
2018-05-02T01:38:53.570Z,2.60
2018-05-02T01:41:21.833Z,2.60
2018-05-02T01:43:50.950Z,3.20
2018-05-02T01:46:19.215Z,2.80
2018-05-02T01:49:05.299Z,2.03
2018-05-02T01:51:33.574Z,2.27
2018-05-02T01:54:01.823Z,2.30
2018-05-02T01:56:30.088Z,2.70
2018-05-02T01:58:58.339Z,2.63
2018-05-02T02:01:26.609Z,2.40
2018-05-02T02:03:54.879Z,2.50
2018-05-02T02:06:23.148Z,2.17
2018-05-02T02:08:51.400Z,3.07
2018-05-02T02:11:20.438Z,2.77
2018-05-02T02:13:48.690Z,2.57
2018-05-02T02:16:16.959Z,2.20
2018-05-02T02:18:45.206Z,2.80
2018-05-02T02:21:14.235Z,2.60
2018-05-02T02:23:42.495Z,2.37
2018-05-02T02:26:10.782Z,2.05
2018-05-02T02:28:39.073Z,1.80
2018-05-02T02:31:07.365Z,1.77
2018-05-02T02:33:35.626Z,1.90
2018-05-02T02:36:03.901Z,1.90
2018-05-02T02:38:32.154Z,2.10
2018-05-02T02:41:00.449Z,2.30
2018-05-02T02:43:28.712Z,2.70
2018-05-02T02:45:57.738Z,2.70
2018-05-02T02:48:25.992Z,2.47
2018-05-02T02:50:54.261Z,2.20
2018-05-02T02:53:22.551Z,2.10
2018-05-02T02:55:50.823Z,2.30
2018-05-02T02:58:19.166Z,2.23
2018-05-02T03:00:48.187Z,2.53
2018-05-02T03:03:16.474Z,2.47
2018-05-02T03:05:44.772Z,1.90
2018-05-02T03:08:13.014Z,2.40
2018-05-02T03:10:41.284Z,2.67
2018-05-02T03:13:09.531Z,2.87
2018-05-02T03:15:37.805Z,2.37
2018-05-02T03:18:06.824Z,2.03
2018-05-02T03:20:35.086Z,2.30
2018-05-02T03:23:04.233Z,2.30
2018-05-02T03:25:32.502Z,2.17
2018-05-02T03:28:00.778Z,2.60
2018-05-02T03:30:29.047Z,2.37
2018-05-02T03:32:57.323Z,2.50
2018-05-02T03:35:25.585Z,2.43
2018-05-02T03:37:53.846Z,2.57
2018-05-02T03:40:22.878Z,2.27
2018-05-02T03:42:51.247Z,2.40
2018-05-02T03:45:19.538Z,2.73
2018-05-02T03:47:47.798Z,2.50
2018-05-02T03:50:16.083Z,2.70
2018-05-02T03:52:44.342Z,2.67
2018-05-02T03:55:12.621Z,2.53
2018-05-02T03:57:40.894Z,2.10
2018-05-02T04:00:26.972Z,2.40
2018-05-02T04:06:26.422Z,2.23
2018-05-02T04:08:54.687Z,2.63
2018-05-02T04:11:22.952Z,2.67
2018-05-02T04:13:51.985Z,2.50
2018-05-02T04:16:20.235Z,2.57
2018-05-02T04:18:48.508Z,2.90
2018-05-02T04:21:16.802Z,2.30
2018-05-02T04:23:45.086Z,3.10
2018-05-02T04:26:13.355Z,2.60
2018-05-02T04:28:41.619Z,2.60
2018-05-02T04:31:09.918Z,2.53
2018-05-02T04:33:38.174Z,2.20
2018-05-02T04:36:06.437Z,2.63
2018-05-02T04:38:35.459Z,2.40
2018-05-02T04:41:03.757Z,2.83
2018-05-02T04:43:32.003Z,3.00
2018-05-02T04:46:00.262Z,2.70
2018-05-02T04:48:29.357Z,2.03
2018-05-02T04:50:57.687Z,2.70
2018-05-02T04:53:26.041Z,2.33
2018-05-02T04:55:54.303Z,2.00
2018-05-02T04:58:22.586Z,2.70
2018-05-02T05:00:50.847Z,2.20
2018-05-02T05:03:19.103Z,2.60
2018-05-02T05:05:48.234Z,2.70
2018-05-02T05:08:16.496Z,2.40
2018-05-02T05:10:44.767Z,2.53
2018-05-02T05:13:13.021Z,2.87
2018-05-02T05:15:42.047Z,2.63
2018-05-02T05:18:10.323Z,2.80
2018-05-02T05:20:38.591Z,3.17
2018-05-02T05:23:06.845Z,2.37
2018-05-02T05:25:35.878Z,2.10
2018-05-02T05:28:04.359Z,3.33
2018-05-02T05:30:32.633Z,2.75
2018-05-02T05:33:00.910Z,2.57
2018-05-02T05:35:29.171Z,2.50
2018-05-02T05:37:57.439Z,2.00
2018-05-02T05:40:25.705Z,2.47
2018-05-02T05:42:54.739Z,2.10
2018-05-02T05:45:23.052Z,2.70
2018-05-02T05:47:52.161Z,2.10
2018-05-02T05:50:20.483Z,2.10
2018-05-02T05:52:48.746Z,2.33
2018-05-02T05:55:17.018Z,2.20
2018-05-02T05:57:45.318Z,3.00
2018-05-02T06:00:13.568Z,3.10
2018-05-02T06:02:41.842Z,2.50
2018-05-02T06:05:10.212Z,2.60
2018-05-02T06:07:38.419Z,2.93
2018-05-02T06:10:06.679Z,2.70
2018-05-02T06:12:34.971Z,2.80
2018-05-02T06:15:04.067Z,2.77
2018-05-02T06:17:32.309Z,2.30
2018-05-02T06:20:01.747Z,2.50
2018-05-02T06:22:30.003Z,2.83
2018-05-02T06:24:58.266Z,2.90
2018-05-02T06:27:27.310Z,2.83
2018-05-02T06:29:55.559Z,2.40
2018-05-02T06:32:23.920Z,2.70
2018-05-02T06:34:52.184Z,2.50
2018-05-02T06:37:21.209Z,2.93
2018-05-02T06:39:49.474Z,3.13
2018-05-02T06:42:17.742Z,2.70
2018-05-02T06:44:46.795Z,2.50
2018-05-02T06:47:15.053Z,3.17
2018-05-02T06:49:43.414Z,3.27
2018-05-02T06:52:11.667Z,2.97
2018-05-02T06:54:39.942Z,3.43
2018-05-02T06:57:08.977Z,3.20
2018-05-02T06:59:37.237Z,3.30
2018-05-02T07:02:05.515Z,3.43
2018-05-02T07:04:33.899Z,2.93
2018-05-02T07:07:02.151Z,2.73
2018-05-02T07:09:30.419Z,2.90
2018-05-02T07:11:59.478Z,2.50
2018-05-02T07:14:27.744Z,2.43
2018-05-02T07:16:56.011Z,2.27
2018-05-02T07:19:24.272Z,2.30
2018-05-02T07:21:52.523Z,3.27
2018-05-02T07:24:20.792Z,2.83
2018-05-02T07:26:49.884Z,2.90
2018-05-02T07:29:19.015Z,2.67
2018-05-02T07:31:47.364Z,2.73
2018-05-02T07:34:16.435Z,3.13
2018-05-02T07:36:45.558Z,2.17
2018-05-02T07:39:13.874Z,2.90
2018-05-02T07:41:42.222Z,3.30
2018-05-02T07:44:10.553Z,2.97
2018-05-02T07:46:38.899Z,2.73
2018-05-02T07:49:07.232Z,3.27
2018-05-02T07:51:36.355Z,3.20
2018-05-02T07:54:04.749Z,2.60
2018-05-02T07:56:33.118Z,3.40
2018-05-02T07:59:01.440Z,2.93
2018-05-02T08:01:30.548Z,2.93
2018-05-02T08:03:59.640Z,2.83
2018-05-02T08:06:28.068Z,3.40
2018-05-02T08:08:56.371Z,2.83
2018-05-02T08:11:24.647Z,3.10
2018-05-02T08:13:52.936Z,2.77
2018-05-02T08:16:21.246Z,2.60
2018-05-02T08:18:49.478Z,2.43
2018-05-02T08:21:17.741Z,2.40
2018-05-02T08:23:46.015Z,2.40
2018-05-02T08:26:14.324Z,2.10
2018-05-02T08:28:42.590Z,2.60
2018-05-02T08:31:10.854Z,2.40
2018-05-02T08:33:39.231Z,2.47
2018-05-02T08:36:07.487Z,2.60
2018-05-02T08:38:35.744Z,2.17
2018-05-02T08:41:04.027Z,2.60
2018-05-02T08:43:32.336Z,2.20
2018-05-02T08:46:00.618Z,2.10
2018-05-02T08:48:28.915Z,2.00
2018-05-02T08:50:57.193Z,1.60
2018-05-02T08:53:25.494Z,1.80
2018-05-02T08:55:54.599Z,2.30
2018-05-02T08:58:23.643Z,2.30
2018-05-02T09:00:51.904Z,2.00
2018-05-02T09:03:20.166Z,2.17
2018-05-02T09:05:48.446Z,2.03
2018-05-02T09:08:16.709Z,1.73
2018-05-02T09:10:44.991Z,2.20
2018-05-02T09:13:13.275Z,1.90
2018-05-02T09:15:41.540Z,2.10
2018-05-02T09:18:09.923Z,2.03
2018-05-02T09:20:38.203Z,2.03
2018-05-02T09:23:06.466Z,1.70
2018-05-02T09:25:34.798Z,2.27
2018-05-02T09:28:03.057Z,2.50
2018-05-02T09:30:31.343Z,1.60
2018-05-02T09:32:59.629Z,1.10
2018-05-02T09:35:27.902Z,1.53
2018-05-02T09:37:56.170Z,1.03
2018-05-02T09:40:24.455Z,1.20
2018-05-02T09:42:52.719Z,1.23
2018-05-02T09:45:20.999Z,1.15
2018-05-02T09:47:49.279Z,1.20
2018-05-02T09:50:17.862Z,1.37
2018-05-02T09:52:46.133Z,1.33
2018-05-02T09:55:14.483Z,1.70
2018-05-02T09:57:42.739Z,2.13
2018-05-02T10:00:11.008Z,1.80
2018-05-02T10:02:40.131Z,1.97
2018-05-02T10:05:08.410Z,1.80
2018-05-02T10:07:36.699Z,1.67
2018-05-02T10:10:04.959Z,2.10
2018-05-02T10:12:33.250Z,1.80
2018-05-02T10:15:01.543Z,1.90
2018-05-02T10:17:29.820Z,2.00
2018-05-02T10:19:58.103Z,1.50
2018-05-02T10:22:26.359Z,1.50
2018-05-02T10:24:54.627Z,2.03
2018-05-02T10:27:22.925Z,1.97
2018-05-02T10:29:52.025Z,1.73
2018-05-02T10:32:20.368Z,1.37
2018-05-02T10:34:49.470Z,1.70
2018-05-02T10:37:17.718Z,1.47
2018-05-02T10:39:46.003Z,1.50
2018-05-02T10:42:14.266Z,1.30
2018-05-02T10:44:43.300Z,1.23
2018-05-02T10:47:11.658Z,1.17
2018-05-02T10:49:39.931Z,1.83
2018-05-02T10:52:08.223Z,1.50
2018-05-02T10:54:36.501Z,1.10
2018-05-02T10:57:04.782Z,1.30
2018-05-02T10:59:33.145Z,0.80
2018-05-02T11:02:01.520Z,0.80
2018-05-02T11:04:29.800Z,1.10
2018-05-02T11:06:58.087Z,1.37
2018-05-02T11:09:26.348Z,3.53
2018-05-02T11:11:54.624Z,0.80
2018-05-02T11:14:22.902Z,0.80
2018-05-02T11:16:51.189Z,0.93
2018-05-02T11:19:19.462Z,0.93
2018-05-02T11:21:47.748Z,1.00
2018-05-02T11:24:16.082Z,1.03
2018-05-02T11:26:45.136Z,0.90
2018-05-02T11:29:13.434Z,1.10
2018-05-02T11:31:41.707Z,1.00
2018-05-02T11:34:09.971Z,0.80
2018-05-02T11:36:38.255Z,0.93
2018-05-02T11:39:06.511Z,1.00
2018-05-02T11:41:34.779Z,0.90
2018-05-02T11:44:03.056Z,1.10
2018-05-02T11:46:31.325Z,1.00
2018-05-02T11:48:59.595Z,1.07
2018-05-02T11:51:27.861Z,0.90
2018-05-02T11:53:56.153Z,1.10
2018-05-02T11:56:24.457Z,0.80
2018-05-02T11:58:52.722Z,1.07
2018-05-02T12:01:20.998Z,1.07
2018-05-02T12:03:49.278Z,1.10
2018-05-02T12:06:17.566Z,1.20
2018-05-02T12:08:45.847Z,1.40
2018-05-02T12:11:14.146Z,1.23
2018-05-02T12:13:43.181Z,0.93
2018-05-02T12:16:11.478Z,1.00
2018-05-02T12:18:39.739Z,1.50
2018-05-02T12:21:08.080Z,1.10
2018-05-02T12:23:37.102Z,1.20
2018-05-02T12:26:05.389Z,1.13
2018-05-02T12:28:33.639Z,1.20
2018-05-02T12:31:01.936Z,1.27
2018-05-02T12:33:30.186Z,1.13
2018-05-02T12:35:58.482Z,1.30
2018-05-02T12:38:26.793Z,1.40
2018-05-02T12:40:55.106Z,1.20
2018-05-02T12:43:24.166Z,1.13
2018-05-02T12:45:52.462Z,1.30
2018-05-02T12:48:21.488Z,1.20
2018-05-02T12:50:49.771Z,1.20
2018-05-02T12:53:18.031Z,0.90
2018-05-02T12:55:46.357Z,1.50
2018-05-02T12:58:15.397Z,1.33
2018-05-02T13:00:44.443Z,1.07
2018-05-02T13:03:12.731Z,1.20
2018-05-02T13:05:41.006Z,1.00
2018-05-02T13:08:09.377Z,1.10
2018-05-02T13:10:38.354Z,0.90
2018-05-02T13:13:06.650Z,1.30
2018-05-02T13:15:34.964Z,0.90
2018-05-02T13:18:03.200Z,1.30
2018-05-02T13:20:31.515Z,1.17
2018-05-02T13:23:00.555Z,1.10
2018-05-02T13:25:28.838Z,1.10
2018-05-02T13:27:57.103Z,1.43
2018-05-02T13:30:25.470Z,1.17
2018-05-02T13:32:53.746Z,1.27
2018-05-02T13:35:22.010Z,1.17
2018-05-02T13:37:50.278Z,1.17
2018-05-02T13:40:18.629Z,0.90
2018-05-02T13:42:46.897Z,1.13
2018-05-02T13:45:15.207Z,1.20
2018-05-02T13:47:44.299Z,1.20
2018-05-02T13:50:13.376Z,1.10
2018-05-02T13:52:42.398Z,1.40
2018-05-02T13:55:10.691Z,1.27
2018-05-02T13:57:38.979Z,1.20
2018-05-02T14:00:07.248Z,1.25
2018-05-02T14:02:35.530Z,1.27
2018-05-02T14:05:03.807Z,1.00
2018-05-02T14:07:32.077Z,1.10
2018-05-02T14:10:00.359Z,1.30
2018-05-02T14:12:28.619Z,0.87
2018-05-02T14:14:56.902Z,1.30
2018-05-02T14:17:25.182Z,1.17
2018-05-02T14:19:53.459Z,1.20
2018-05-02T14:22:21.731Z,0.87
2018-05-02T14:24:51.200Z,1.20
2018-05-02T14:27:19.441Z,1.13
2018-05-02T14:29:47.703Z,1.10
2018-05-02T14:32:16.032Z,1.00
2018-05-02T14:34:45.160Z,1.13
2018-05-02T14:37:13.425Z,1.00
2018-05-02T14:39:41.686Z,1.10
2018-05-02T14:42:10.812Z,1.00
2018-05-02T14:44:39.071Z,0.87
2018-05-02T14:47:07.347Z,1.27
2018-05-02T14:49:35.606Z,1.10
2018-05-02T14:52:04.656Z,0.90
2018-05-02T14:54:32.927Z,1.03
2018-05-02T14:57:01.203Z,0.90
2018-05-02T14:59:29.472Z,1.30
2018-05-02T15:01:57.819Z,1.03
2018-05-02T15:04:26.027Z,1.10
2018-05-02T15:06:54.384Z,0.83
2018-05-02T15:09:22.681Z,0.87
2018-05-02T15:11:50.935Z,1.10
2018-05-02T15:14:19.213Z,1.20
2018-05-02T15:16:47.498Z,0.93
2018-05-02T15:19:15.794Z,0.93
2018-05-02T15:21:44.074Z,0.90
2018-05-02T15:24:12.374Z,1.17
2018-05-02T15:26:40.702Z,1.00
2018-05-02T15:29:08.986Z,1.73
2018-05-02T15:31:37.255Z,1.67
2018-05-02T15:34:05.528Z,1.00
2018-05-02T15:36:33.806Z,1.00
2018-05-02T15:39:02.070Z,0.87
2018-05-02T15:41:30.355Z,0.80
2018-05-02T15:43:58.619Z,0.83
2018-05-02T15:46:26.884Z,0.97
2018-05-02T15:48:55.961Z,1.00
2018-05-02T15:51:24.219Z,0.90
2018-05-02T15:53:52.496Z,0.83
2018-05-02T15:56:20.804Z,1.50
2018-05-02T15:58:49.854Z,0.83
2018-05-02T16:01:18.138Z,0.70
2018-05-02T16:03:46.415Z,1.07
2018-05-02T16:06:14.715Z,0.80
2018-05-02T16:08:43.011Z,1.20
2018-05-02T16:11:12.042Z,0.80
2018-05-02T16:13:40.324Z,1.10
2018-05-02T16:16:08.616Z,1.53
2018-05-02T16:18:36.876Z,1.00
2018-05-02T16:21:05.150Z,1.00
2018-05-02T16:23:33.435Z,1.03
2018-05-02T16:26:01.724Z,1.10
2018-05-02T16:28:30.012Z,0.90
2018-05-02T16:30:58.287Z,0.90
2018-05-02T16:33:26.560Z,0.90
2018-05-02T16:35:54.828Z,0.60
2018-05-02T16:38:23.102Z,1.00
2018-05-02T16:40:51.396Z,0.77
2018-05-02T16:43:19.682Z,0.57
2018-05-02T16:45:48.722Z,0.63
2018-05-02T16:48:16.990Z,1.13
2018-05-02T16:50:45.272Z,1.00
2018-05-02T16:53:13.559Z,1.10
2018-05-02T16:55:41.822Z,0.93
2018-05-02T16:58:10.105Z,0.87
2018-05-02T17:00:38.385Z,0.70
2018-05-02T17:03:06.653Z,0.90
2018-05-02T17:05:34.922Z,0.70
2018-05-02T17:08:03.202Z,0.83
2018-05-02T17:10:31.480Z,1.03
2018-05-02T17:12:59.907Z,0.77
2018-05-02T17:15:28.043Z,1.10
2018-05-02T17:17:56.309Z,0.67
2018-05-02T17:20:24.612Z,0.83
2018-05-02T17:22:52.883Z,0.60
2018-05-02T17:25:21.164Z,0.90
2018-05-02T17:27:49.436Z,0.90
2018-05-02T17:30:18.480Z,1.10
2018-05-02T17:32:47.539Z,0.90
2018-05-02T17:35:15.908Z,1.00
2018-05-02T17:37:44.200Z,1.10
2018-05-02T17:40:12.493Z,1.20
2018-05-02T17:42:40.820Z,0.87
2018-05-02T17:45:09.111Z,1.43
2018-05-02T17:47:37.477Z,0.83
2018-05-02T17:50:06.094Z,0.90
2018-05-02T17:52:35.275Z,1.10
2018-05-02T17:55:03.567Z,1.10
2018-05-02T17:57:31.939Z,1.03
2018-05-02T18:00:00.348Z,0.83
2018-05-02T18:02:29.440Z,0.90
2018-05-02T18:04:59.865Z,0.80
2018-05-02T18:07:28.862Z,0.80
2018-05-02T18:09:58.844Z,1.03
2018-05-02T18:12:27.670Z,0.80
2018-05-02T18:14:57.556Z,0.70
2018-05-02T18:17:27.510Z,0.80
2018-05-02T18:19:56.749Z,0.90
2018-05-02T18:22:26.237Z,1.00
2018-05-02T18:24:55.625Z,0.53
2018-05-02T18:27:25.743Z,0.50
2018-05-02T18:29:55.724Z,0.60
2018-05-02T18:32:25.623Z,0.90
2018-05-02T18:34:54.823Z,0.90
2018-05-02T18:37:24.240Z,0.90
2018-05-02T18:39:53.550Z,0.77
2018-05-02T18:42:22.868Z,0.90
2018-05-02T18:44:52.271Z,0.90
2018-05-02T18:47:21.611Z,0.83
2018-05-02T18:49:51.033Z,0.90
2018-05-02T18:52:20.406Z,0.87
2018-05-02T18:54:49.805Z,0.90
2018-05-02T18:57:20.753Z,0.70
2018-05-02T18:59:50.176Z,0.90
2018-05-02T19:02:20.096Z,0.80
2018-05-02T19:04:50.301Z,1.07
2018-05-02T19:07:20.950Z,1.00
2018-05-02T19:09:51.113Z,1.10
2018-05-02T19:12:21.782Z,1.00
2018-05-02T19:14:51.714Z,1.00
2018-05-02T19:17:21.678Z,0.90
2018-05-02T19:19:56.787Z,1.20
2018-05-02T19:22:26.637Z,1.27
2018-05-02T19:25:02.743Z,1.20
2018-05-02T19:27:32.812Z,1.13
2018-05-02T19:30:03.702Z,0.90
2018-05-02T19:32:38.599Z,0.70
2018-05-02T19:35:08.502Z,1.20
2018-05-02T19:37:39.091Z,0.97
2018-05-02T19:40:14.377Z,0.70
2018-05-02T19:42:49.571Z,1.67
2018-05-02T19:45:19.454Z,1.97
2018-05-02T19:47:49.310Z,2.13
2018-05-02T19:50:19.306Z,2.13
2018-05-02T19:52:49.228Z,1.80
2018-05-02T19:55:20.102Z,1.93
2018-05-02T19:57:50.168Z,1.50
2018-05-02T20:00:25.575Z,1.30
2018-05-02T20:03:02.203Z,1.30
2018-05-02T20:05:32.216Z,1.13
2018-05-02T20:08:02.155Z,1.20
2018-05-02T20:10:38.342Z,1.20
2018-05-02T20:13:14.317Z,1.10
2018-05-02T20:15:44.301Z,1.10
2018-05-02T20:18:14.951Z,1.13
2018-05-02T20:20:44.447Z,1.00
2018-05-02T20:23:13.862Z,1.50
2018-05-02T20:25:43.821Z,1.77
2018-05-02T20:28:13.417Z,1.60
2018-05-02T20:30:43.413Z,1.37
2018-05-02T20:33:13.327Z,1.73
2018-05-02T20:35:43.328Z,2.07
2018-05-02T20:38:13.894Z,1.80
2018-05-02T20:40:43.805Z,1.60
2018-05-02T20:43:14.146Z,1.70
2018-05-02T20:45:43.773Z,1.47
2018-05-02T20:48:13.361Z,1.50
2018-05-02T20:50:43.263Z,1.70
2018-05-02T20:53:13.936Z,1.17
2018-05-02T20:55:44.051Z,1.33
2018-05-02T20:58:13.739Z,1.10
2018-05-02T21:00:43.534Z,1.00
2018-05-02T21:03:12.851Z,0.80
2018-05-02T21:05:41.309Z,1.80
2018-05-02T21:08:09.760Z,1.13
2018-05-02T21:10:38.065Z,1.40
2018-05-02T21:13:06.367Z,1.03
2018-05-02T21:15:34.664Z,1.00
2018-05-02T21:18:03.771Z,1.23
2018-05-02T21:20:32.068Z,1.10
2018-05-02T21:23:00.343Z,1.03
2018-05-02T21:25:28.612Z,1.30
2018-05-02T21:27:56.898Z,1.20
2018-05-02T21:30:25.183Z,1.00
2018-05-02T21:32:53.547Z,1.00
2018-05-02T21:35:21.857Z,1.20
2018-05-02T21:37:51.644Z,1.00
2018-05-02T21:40:20.008Z,1.30
2018-05-02T21:42:48.383Z,1.00
2018-05-02T21:45:16.653Z,1.10
2018-05-02T21:47:44.985Z,1.23
2018-05-02T21:50:13.202Z,1.30
2018-05-02T21:52:41.511Z,1.30
2018-05-02T21:55:09.802Z,1.40
2018-05-02T21:57:38.153Z,1.63
2018-05-02T22:00:06.528Z,1.50
2018-05-02T22:02:34.791Z,1.30
2018-05-02T22:05:03.155Z,1.23
2018-05-02T22:07:32.264Z,1.50
2018-05-02T22:10:00.656Z,1.10
2018-05-02T22:12:28.915Z,1.30
2018-05-02T22:14:57.183Z,1.40
2018-05-02T22:17:26.315Z,1.40
2018-05-02T22:19:54.572Z,1.40
2018-05-02T22:22:22.877Z,1.47
2018-05-02T22:24:51.143Z,1.30
2018-05-02T22:27:19.414Z,1.70
2018-05-02T22:29:47.707Z,1.60
2018-05-02T22:32:15.967Z,1.90
2018-05-02T22:34:44.255Z,1.50
2018-05-02T22:37:12.531Z,1.70
2018-05-02T22:39:41.828Z,1.53
2018-05-02T22:42:10.164Z,1.83
2018-05-02T22:44:38.390Z,2.03
2018-05-02T22:47:06.679Z,1.90
2018-05-02T22:49:34.965Z,2.00
2018-05-02T22:52:03.304Z,1.80
2018-05-02T22:54:31.606Z,1.80
2018-05-02T22:56:59.872Z,1.83
2018-05-02T22:59:28.131Z,2.10
2018-05-02T23:01:56.510Z,2.17
2018-05-02T23:04:24.889Z,1.50
2018-05-02T23:06:53.166Z,1.80
2018-05-02T23:09:21.443Z,2.07
2018-05-02T23:11:49.817Z,1.50
2018-05-02T23:14:18.074Z,1.47
2018-05-02T23:16:46.423Z,1.33
2018-05-02T23:19:14.835Z,1.93
2018-05-02T23:21:43.887Z,1.67
2018-05-02T23:24:12.239Z,2.00
2018-05-02T23:26:40.508Z,1.90
2018-05-02T23:29:08.803Z,2.30
2018-05-02T23:31:37.077Z,1.83
2018-05-02T23:34:05.441Z,1.97
2018-05-02T23:36:33.715Z,1.70
2018-05-02T23:39:01.983Z,1.63
2018-05-02T23:41:30.270Z,1.70
2018-05-02T23:43:58.536Z,1.93
2018-05-02T23:46:26.922Z,2.03
2018-05-02T23:48:55.175Z,2.10
2018-05-02T23:51:23.454Z,2.50
2018-05-02T23:53:51.725Z,2.13
2018-05-02T23:56:20.759Z,1.70
2018-05-02T23:58:49.090Z,1.90
